Stratford, Wisconsin
Current Conditions -  °F | °C
As of 8:54 PM on Friday 19 Dec 2014 (Local Time) from KMFI Reporting Station
Overcast Overcast  
Wind Chill: 18°   Ceiling: 1900
Heat Index: 24°   Visibility: 9mi
Dew Point: 20°   Wind: 5mph
Humidity: 84%   Direction: 130°SE
Pressure: 30.21"   Gusts: NA
Location:  44.8°N, 90.08°W
Report Text: KMFI 200254Z AUTO 13004KT 9SM BKN019 OVC033 M04/M07 A3021 RMK AO2 SLP251 T10441067 58014
Loading
Personal Weather Stations






























Interactive Weather Map New forecast layout! Learn more

10-Day Weather Forecast

Advertisements
Track Severe Weather on mobile